createdAt,value
2022-07-26T00:03:26.566Z,52.35
2022-07-26T00:08:19.766Z,53.29
2022-07-26T00:13:14.717Z,54.00
2022-07-26T00:18:12.154Z,55.06
2022-07-26T00:23:05.643Z,55.82
2022-07-26T00:27:58.842Z,56.72
2022-07-26T00:32:53.921Z,56.93
2022-07-26T00:37:48.671Z,57.46
2022-07-26T00:42:42.266Z,58.62
2022-07-26T00:47:36.003Z,59.95
2022-07-26T00:52:30.837Z,60.61
2022-07-26T00:57:24.757Z,61.09
2022-07-26T01:02:18.625Z,62.11
2022-07-26T01:07:14.697Z,62.12
2022-07-26T01:12:14.400Z,62.69
2022-07-26T01:17:07.694Z,63.40
2022-07-26T01:22:02.242Z,64.69
2022-07-26T01:26:57.016Z,64.28
2022-07-26T01:31:50.596Z,65.15
2022-07-26T01:36:43.803Z,65.46
2022-07-26T01:53:53.405Z,65.40
2022-07-26T01:58:48.998Z,66.42
2022-07-26T02:03:55.902Z,67.33
2022-07-26T02:09:34.064Z,68.20
2022-07-26T02:14:40.610Z,68.48
2022-07-26T02:54:58.745Z,72.33
2022-07-26T03:06:16.342Z,72.66
2022-07-26T03:12:12.730Z,72.39
2022-07-26T03:17:09.115Z,72.55
2022-07-26T03:22:26.477Z,73.23
2022-07-26T03:27:22.438Z,73.55
2022-07-26T03:38:33.721Z,73.72
2022-07-26T03:43:52.324Z,73.93
2022-07-26T03:49:16.584Z,74.21
2022-07-26T03:54:17.055Z,74.76
2022-07-26T03:59:18.838Z,74.51
2022-07-26T04:11:22.972Z,72.67
2022-07-26T04:36:24.311Z,69.96
2022-07-26T04:41:20.228Z,69.18
2022-07-26T04:46:14.058Z,69.38
2022-07-26T04:51:07.773Z,68.60
2022-07-26T04:56:01.209Z,68.58
2022-07-26T05:01:09.145Z,68.40
2022-07-26T05:06:06.137Z,67.97
2022-07-26T05:10:59.762Z,67.24
2022-07-26T05:16:01.839Z,67.29
2022-07-26T05:21:23.506Z,66.03
2022-07-26T05:26:32.714Z,65.62
2022-07-26T05:31:28.321Z,64.78
2022-07-26T05:36:25.788Z,64.17
2022-07-26T05:41:24.851Z,63.96
2022-07-26T05:46:22.547Z,63.53
2022-07-26T05:51:19.988Z,62.08
2022-07-26T05:56:25.182Z,61.57
2022-07-26T06:01:22.121Z,61.07
2022-07-26T06:06:20.547Z,59.40
2022-07-26T06:11:14.590Z,57.64
2022-07-26T06:16:09.816Z,55.99
2022-07-26T06:21:04.751Z,55.67
2022-07-26T06:25:59.476Z,54.64
2022-07-26T06:30:57.875Z,54.55
2022-07-26T06:35:54.688Z,53.69
2022-07-26T06:40:55.775Z,52.83
2022-07-26T06:45:54.173Z,52.79
2022-07-26T06:50:50.558Z,52.83
2022-07-26T06:55:45.033Z,52.77
2022-07-26T07:00:40.507Z,51.83
2022-07-26T07:05:36.811Z,52.00
2022-07-26T07:10:32.844Z,50.75
2022-07-26T07:15:30.007Z,50.06
2022-07-26T07:20:25.445Z,49.46
2022-07-26T07:25:27.375Z,48.68
2022-07-26T07:30:28.052Z,48.26
2022-07-26T07:35:24.304Z,46.80
2022-07-26T07:40:27.753Z,46.05
2022-07-26T07:45:24.780Z,45.80
2022-07-26T07:50:28.516Z,43.85
2022-07-26T07:55:41.410Z,41.26
2022-07-26T08:00:42.448Z,40.09
2022-07-26T08:05:40.327Z,40.57
2022-07-26T08:10:51.777Z,38.86
2022-07-26T08:15:46.280Z,38.79
2022-07-26T08:20:46.414Z,36.19
2022-07-26T08:25:55.106Z,34.41
2022-07-26T08:30:53.166Z,33.61
2022-07-26T08:35:58.629Z,32.92
2022-07-26T08:40:54.801Z,31.78
2022-07-26T08:45:51.008Z,30.30
2022-07-26T08:50:55.541Z,29.06
2022-07-26T08:56:06.802Z,28.07
2022-07-26T09:01:14.393Z,27.34
2022-07-26T09:06:20.680Z,26.89
2022-07-26T09:11:33.889Z,26.12
2022-07-26T09:16:31.264Z,26.10
2022-07-26T09:21:31.152Z,25.30
2022-07-26T09:26:32.193Z,25.77
2022-07-26T09:31:25.777Z,25.01
2022-07-26T09:36:25.070Z,25.11
2022-07-26T09:41:20.698Z,25.30
2022-07-26T09:46:21.519Z,24.94
2022-07-26T09:51:44.819Z,24.47
2022-07-26T09:56:47.050Z,25.84
2022-07-26T10:01:43.152Z,26.36
2022-07-26T10:06:36.884Z,26.08
2022-07-26T10:11:40.331Z,26.36
2022-07-26T10:16:34.591Z,26.71
2022-07-26T10:21:31.602Z,24.83
2022-07-26T10:26:45.790Z,23.70
2022-07-26T10:31:42.132Z,21.97
2022-07-26T10:36:42.636Z,23.16
2022-07-26T10:41:40.299Z,23.30
2022-07-26T10:46:37.191Z,24.87
2022-07-26T10:51:35.307Z,24.39
2022-07-26T10:56:33.362Z,23.94
2022-07-26T11:01:38.746Z,21.60
2022-07-26T11:06:32.721Z,21.05
2022-07-26T11:11:31.040Z,19.91
2022-07-26T11:16:29.780Z,18.93
2022-07-26T11:21:26.502Z,18.12
2022-07-26T11:26:23.611Z,17.29
2022-07-26T11:31:23.654Z,17.21
2022-07-26T11:36:46.920Z,16.28
2022-07-26T11:41:41.994Z,16.29
2022-07-26T11:46:50.268Z,16.38
2022-07-26T11:52:01.158Z,15.75
2022-07-26T11:56:59.593Z,15.67
2022-07-26T12:01:54.304Z,15.10
2022-07-26T12:06:52.047Z,14.90
2022-07-26T12:11:48.254Z,15.50
2022-07-26T12:16:43.012Z,14.75
2022-07-26T12:21:44.365Z,14.24
2022-07-26T12:26:40.989Z,14.79
2022-07-26T12:31:39.916Z,14.05
2022-07-26T12:36:35.507Z,13.96
2022-07-26T12:41:37.488Z,13.98
2022-07-26T12:46:34.597Z,13.55
2022-07-26T12:51:32.529Z,13.92
2022-07-26T12:56:26.122Z,13.66
2022-07-26T13:01:19.757Z,13.64
2022-07-26T13:06:14.530Z,13.77
2022-07-26T13:11:09.813Z,13.89
2022-07-26T13:16:06.654Z,13.49
2022-07-26T13:21:02.926Z,13.72
2022-07-26T13:25:56.344Z,13.09
2022-07-26T13:30:52.118Z,13.12
2022-07-26T13:35:45.569Z,12.89
2022-07-26T13:40:43.688Z,12.50
2022-07-26T13:45:55.940Z,13.17
2022-07-26T13:50:49.965Z,12.78
2022-07-26T13:55:47.289Z,13.25
2022-07-26T14:00:42.172Z,12.61
2022-07-26T14:05:36.905Z,13.91
2022-07-26T14:10:30.277Z,13.39
2022-07-26T14:15:23.857Z,13.87
2022-07-26T14:20:20.008Z,13.54
2022-07-26T14:25:15.207Z,13.40
2022-07-26T14:30:09.065Z,13.64
2022-07-26T14:35:02.509Z,14.09
2022-07-26T14:39:56.079Z,14.87
2022-07-26T14:44:52.928Z,16.10
2022-07-26T14:49:46.072Z,17.30
2022-07-26T14:54:40.318Z,18.45
2022-07-26T14:59:33.882Z,18.14
2022-07-26T15:04:35.590Z,19.09
2022-07-26T15:09:31.620Z,18.92
2022-07-26T15:14:33.203Z,19.10
2022-07-26T15:19:32.171Z,19.68
2022-07-26T15:24:39.561Z,20.68
2022-07-26T15:29:37.461Z,20.66
2022-07-26T15:34:42.280Z,21.10
2022-07-26T15:39:52.594Z,21.29
2022-07-26T15:44:48.011Z,21.37
2022-07-26T15:49:41.731Z,21.52
2022-07-26T15:54:39.528Z,21.78
2022-07-26T15:59:33.129Z,22.02
2022-07-26T16:04:29.698Z,21.43
2022-07-26T16:09:23.246Z,22.13
2022-07-26T16:14:18.773Z,23.04
2022-07-26T16:19:15.735Z,23.48
2022-07-26T16:24:19.499Z,22.48
2022-07-26T16:29:16.017Z,22.60
2022-07-26T16:34:15.998Z,22.74
2022-07-26T16:39:14.018Z,23.13
2022-07-26T16:44:17.583Z,23.27
2022-07-26T16:49:18.680Z,23.21
2022-07-26T16:54:12.297Z,23.44
2022-07-26T16:59:10.301Z,23.75
2022-07-26T17:04:04.634Z,23.84
2022-07-26T17:08:59.474Z,23.83
2022-07-26T17:13:55.113Z,23.85
2022-07-26T17:18:48.754Z,24.08
2022-07-26T17:23:48.068Z,24.27
2022-07-26T17:28:46.085Z,24.14
2022-07-26T17:33:44.226Z,24.93
2022-07-26T17:38:40.954Z,25.41
2022-07-26T17:43:40.551Z,25.36
2022-07-26T17:48:35.356Z,25.94
2022-07-26T17:53:32.058Z,26.18
2022-07-26T17:58:28.296Z,26.24
2022-07-26T18:03:23.364Z,26.45
2022-07-26T18:08:27.303Z,26.77
2022-07-26T18:13:20.786Z,26.73
2022-07-26T18:18:28.001Z,26.96
2022-07-26T18:23:23.845Z,27.09
2022-07-26T18:28:17.637Z,26.99
2022-07-26T18:33:17.772Z,27.09
2022-07-26T18:38:11.265Z,27.31
2022-07-26T18:43:06.175Z,27.18
2022-07-26T18:48:02.434Z,27.30
2022-07-26T18:52:57.034Z,27.36
2022-07-26T18:57:55.909Z,27.49
2022-07-26T19:02:54.833Z,27.26
2022-07-26T19:07:48.512Z,27.48
2022-07-26T19:12:50.200Z,27.55
2022-07-26T19:17:46.862Z,27.27
2022-07-26T19:22:44.286Z,27.78
2022-07-26T19:27:38.839Z,28.26
2022-07-26T19:32:33.760Z,28.20
2022-07-26T19:37:37.618Z,28.45
2022-07-26T19:42:33.192Z,28.57
2022-07-26T19:47:26.899Z,28.33
2022-07-26T19:52:20.689Z,28.54
2022-07-26T19:57:14.810Z,28.63
2022-07-26T20:02:09.895Z,28.91
2022-07-26T20:07:07.465Z,28.81
2022-07-26T20:12:01.777Z,30.05
2022-07-26T20:16:57.200Z,31.55
2022-07-26T20:21:53.005Z,32.46
2022-07-26T20:26:46.663Z,33.78
2022-07-26T20:31:40.539Z,34.22
2022-07-26T20:36:39.062Z,35.20
2022-07-26T20:41:37.831Z,36.47
2022-07-26T20:46:42.965Z,37.92
2022-07-26T20:51:49.492Z,37.32
2022-07-26T20:56:52.660Z,37.73
2022-07-26T21:01:50.918Z,35.86
2022-07-26T21:06:45.964Z,35.55
2022-07-26T21:11:42.662Z,34.97
2022-07-26T21:17:40.042Z,34.43
2022-07-26T21:22:18.471Z,34.06
2022-07-26T21:27:44.570Z,33.99
2022-07-26T21:33:02.791Z,33.91
2022-07-26T21:38:18.655Z,33.97
2022-07-26T21:43:34.023Z,33.69
2022-07-26T21:48:29.074Z,33.96
2022-07-26T21:53:27.806Z,33.91
2022-07-26T21:58:27.759Z,33.94
2022-07-26T22:03:21.709Z,34.11
2022-07-26T22:08:17.253Z,34.40
2022-07-26T22:13:12.269Z,34.56
2022-07-26T22:18:06.884Z,34.24
2022-07-26T22:23:03.954Z,34.66
2022-07-26T22:27:59.508Z,35.02
2022-07-26T22:32:59.585Z,35.27
2022-07-26T22:37:56.417Z,35.74
2022-07-26T22:42:50.189Z,35.88
2022-07-26T22:47:55.755Z,36.01
2022-07-26T22:52:49.893Z,36.32
2022-07-26T22:57:43.660Z,36.30
2022-07-26T23:02:37.542Z,36.64
2022-07-26T23:07:33.476Z,36.94
2022-07-26T23:12:30.971Z,37.25
2022-07-26T23:17:24.410Z,37.54
2022-07-26T23:22:18.007Z,37.76
2022-07-26T23:27:18.063Z,38.33
2022-07-26T23:32:13.210Z,38.48
2022-07-26T23:37:06.791Z,38.97
2022-07-26T23:42:02.896Z,39.55
2022-07-26T23:46:57.826Z,39.84
2022-07-26T23:51:51.839Z,39.86
2022-07-26T23:56:45.938Z,40.12
